Time;durP1;ratioP1;P1;durP2;ratioP2;P2;SDS_P1;SDS_P2;PMS_P1;PMS_P2;Temp;Humidity;BMP_temperature;BMP_pressure;BME280_temperature;BME280_humidity;BME280_pressure;Samples;Min_cycle;Max_cycle;Signal;HPM_P1;HPM_P2
2021/08/04 00:00:13;;;;;;;6.00;3.17;;;15.50;76.90;;;;;;5093612;28;20040;-86
2021/08/04 00:02:40;;;;;;;5.72;3.00;;;15.50;76.80;;;;;;5094759;28;20048;-86
2021/08/04 00:05:08;;;;;;;4.78;3.00;;;15.40;76.70;;;;;;5094688;28;20051;-86
2021/08/04 00:07:35;;;;;;;6.68;3.17;;;15.40;76.70;;;;;;5093325;28;20044;-85
2021/08/04 00:10:04;;;;;;;8.60;3.20;;;15.40;76.60;;;;;;5092741;28;20044;-86
2021/08/04 00:12:30;;;;;;;9.40;2.97;;;15.40;76.60;;;;;;5093313;28;20312;-86
2021/08/04 00:14:57;;;;;;;6.35;2.75;;;15.40;76.60;;;;;;5092906;28;20104;-85
2021/08/04 00:17:24;;;;;;;5.72;3.00;;;15.30;76.50;;;;;;5094621;28;20052;-86
2021/08/04 00:19:51;;;;;;;9.60;3.13;;;15.30;76.50;;;;;;5091602;28;20105;-86
2021/08/04 00:22:18;;;;;;;8.85;3.20;;;15.30;76.40;;;;;;5121098;27;20086;-86
2021/08/04 00:24:45;;;;;;;5.13;3.17;;;15.20;76.50;;;;;;5092480;28;20048;-85
2021/08/04 00:27:12;;;;;;;9.50;3.47;;;15.20;76.50;;;;;;5093065;28;20509;-86
2021/08/04 00:29:39;;;;;;;7.10;2.97;;;15.20;76.50;;;;;;5094338;28;20451;-85
2021/08/04 00:32:07;;;;;;;5.05;3.20;;;15.10;76.50;;;;;;5093741;28;20059;-85
2021/08/04 00:34:34;;;;;;;10.55;3.58;;;15.10;76.50;;;;;;5092613;28;20402;-86
2021/08/04 00:37:00;;;;;;;9.60;3.00;;;15.10;76.70;;;;;;5092723;28;20406;-85
2021/08/04 00:39:27;;;;;;;7.75;3.10;;;15.00;76.80;;;;;;5092400;28;20094;-85
2021/08/04 00:41:54;;;;;;;5.32;2.45;;;15.00;76.70;;;;;;5092836;28;20094;-85
2021/08/04 00:44:21;;;;;;;5.43;3.10;;;15.00;76.60;;;;;;5094594;28;20052;-85
2021/08/04 00:46:48;;;;;;;6.63;2.80;;;14.90;76.50;;;;;;5092567;28;20078;-85
2021/08/04 00:49:15;;;;;;;8.20;3.15;;;14.90;76.60;;;;;;5092476;28;20098;-85
2021/08/04 00:51:42;;;;;;;7.75;3.08;;;14.90;76.60;;;;;;5092515;28;20101;-85
2021/08/04 00:54:09;;;;;;;7.43;3.40;;;14.90;76.60;;;;;;5090977;28;20048;-85
2021/08/04 00:56:36;;;;;;;9.77;3.17;;;14.90;76.60;;;;;;5094099;28;20394;-86
2021/08/04 00:59:05;;;;;;;6.72;2.88;;;14.80;76.50;;;;;;5091763;28;20066;-85
2021/08/04 01:01:43;;;;;;;8.65;3.28;;;14.80;76.50;;;;;;5092131;28;20048;-86
2021/08/04 01:04:23;;;;;;;8.00;3.10;;;14.80;76.60;;;;;;5092146;28;20055;-85
2021/08/04 01:07:24;;;;;;;10.13;3.33;;;14.80;76.50;;;;;;5091843;28;20048;-86
2021/08/04 01:10:16;;;;;;;6.00;2.88;;;14.70;76.50;;;;;;5092105;28;20105;-85
2021/08/04 01:12:50;;;;;;;12.40;3.50;;;14.70;76.60;;;;;;5091889;28;20052;-85
2021/08/04 01:15:17;;;;;;;13.75;3.53;;;14.70;76.80;;;;;;5092076;28;20055;-86
2021/08/04 01:17:51;;;;;;;6.40;3.22;;;14.70;76.90;;;;;;5092797;28;20051;-86
2021/08/04 01:20:24;;;;;;;6.45;3.00;;;14.60;76.80;;;;;;5091252;28;20056;-86
2021/08/04 01:22:59;;;;;;;8.43;3.22;;;14.60;76.70;;;;;;5091524;28;20078;-85
2021/08/04 01:25:35;;;;;;;6.88;3.03;;;14.60;76.70;;;;;;5091676;28;20085;-85
2021/08/04 01:28:19;;;;;;;10.80;2.88;;;14.60;76.70;;;;;;5091767;28;20040;-86
2021/08/04 01:30:50;;;;;;;13.32;3.10;;;14.50;76.70;;;;;;5091772;28;20425;-85
2021/08/04 01:33:18;;;;;;;10.20;3.13;;;14.50;76.70;;;;;;5091784;28;20527;-85
2021/08/04 01:35:46;;;;;;;7.28;2.90;;;14.40;76.80;;;;;;5092532;28;20044;-86
2021/08/04 01:38:16;;;;;;;6.80;2.88;;;14.40;76.60;;;;;;5091325;28;20562;-86
2021/08/04 01:40:48;;;;;;;9.88;3.10;;;14.40;76.50;;;;;;5090417;28;20562;-86
2021/08/04 01:43:16;;;;;;;8.15;2.90;;;14.40;76.50;;;;;;5091410;28;20501;-85
2021/08/04 01:45:44;;;;;;;15.80;3.35;;;14.40;76.40;;;;;;5091438;28;20048;-86
2021/08/04 01:48:11;;;;;;;5.78;3.42;;;14.40;76.60;;;;;;5091546;28;20051;-86
2021/08/04 01:50:40;;;;;;;5.53;2.65;;;14.30;76.80;;;;;;5092421;28;20101;-86
2021/08/04 01:53:08;;;;;;;6.55;2.90;;;14.30;76.80;;;;;;5091155;28;20501;-85
2021/08/04 01:55:35;;;;;;;6.13;3.38;;;14.30;76.60;;;;;;5091137;28;20048;-85
2021/08/04 01:58:03;;;;;;;4.88;2.58;;;14.20;76.60;;;;;;5089512;28;20471;-85
2021/08/04 02:00:29;;;;;;;11.20;3.10;;;14.20;76.60;;;;;;5091248;28;20052;-86
2021/08/04 02:02:56;;;;;;;7.43;3.08;;;14.20;76.50;;;;;;5091318;28;20119;-86
2021/08/04 02:05:24;;;;;;;11.38;2.83;;;14.20;76.40;;;;;;5092824;28;20127;-85
2021/08/04 02:08:09;;;;;;;7.65;3.00;;;14.10;76.30;;;;;;5090907;28;20059;-85
2021/08/04 02:10:44;;;;;;;9.02;3.00;;;14.10;76.30;;;;;;5090789;28;20036;-85
2021/08/04 02:13:35;;;;;;;11.80;3.22;;;14.10;76.40;;;;;;5088946;28;20044;-86
2021/08/04 02:16:14;;;;;;;5.90;3.28;;;14.10;76.50;;;;;;5089442;28;20454;-86
2021/08/04 02:18:48;;;;;;;5.78;3.08;;;14.00;76.50;;;;;;5088666;28;20044;-85
2021/08/04 02:21:18;;;;;;;5.18;2.78;;;14.00;76.60;;;;;;5090699;28;20039;-85
2021/08/04 02:23:47;;;;;;;5.80;2.92;;;14.00;76.70;;;;;;5091349;28;20405;-85
2021/08/04 02:26:18;;;;;;;11.60;3.17;;;14.00;76.70;;;;;;5092906;28;20044;-85
2021/08/04 02:28:50;;;;;;;9.93;2.85;;;13.90;76.60;;;;;;5089168;28;20505;-86
2021/08/04 02:31:18;;;;;;;4.93;2.58;;;13.90;76.60;;;;;;5090648;28;20055;-86
2021/08/04 02:33:46;;;;;;;5.55;2.90;;;13.90;76.50;;;;;;5090359;28;20048;-85
2021/08/04 02:36:13;;;;;;;6.60;2.80;;;13.90;76.50;;;;;;5089185;28;20045;-86
2021/08/04 02:38:43;;;;;;;8.57;3.00;;;13.90;76.50;;;;;;5091708;28;20060;-88
2021/08/04 02:41:11;;;;;;;6.18;2.75;;;13.80;76.40;;;;;;5091987;28;20459;-88
2021/08/04 02:43:38;;;;;;;4.45;2.50;;;13.80;76.50;;;;;;5090519;28;20493;-88
2021/08/04 02:46:05;;;;;;;9.85;3.05;;;13.80;76.70;;;;;;5087361;28;20586;-86
2021/08/04 02:48:34;;;;;;;8.57;2.97;;;13.80;76.80;;;;;;5090052;28;20513;-86
2021/08/04 02:51:12;;;;;;;6.85;2.95;;;13.80;76.70;;;;;;5090510;28;20101;-87
2021/08/04 02:53:39;;;;;;;6.32;2.88;;;13.70;76.70;;;;;;5087428;28;20044;-86
2021/08/04 02:56:06;;;;;;;7.78;2.58;;;13.70;76.80;;;;;;5091035;28;20059;-86
2021/08/04 02:58:37;;;;;;;7.03;2.55;;;13.70;76.90;;;;;;5090123;28;20044;-86
2021/08/04 03:01:05;;;;;;;4.85;2.63;;;13.70;76.80;;;;;;5090305;28;20044;-86
2021/08/04 03:03:33;;;;;;;10.15;3.20;;;13.70;76.80;;;;;;5088747;28;20455;-86
2021/08/04 03:06:00;;;;;;;9.95;2.67;;;13.60;76.90;;;;;;5090436;28;20048;-86
2021/08/04 03:08:27;;;;;;;9.98;2.53;;;13.60;76.90;;;;;;5091131;28;20101;-86
2021/08/04 03:10:54;;;;;;;11.05;3.00;;;13.60;76.90;;;;;;5090162;28;20055;-86
2021/08/04 03:13:21;;;;;;;6.55;2.38;;;13.60;76.90;;;;;;5087749;28;20059;-86
2021/08/04 03:15:48;;;;;;;13.95;3.25;;;13.60;76.90;;;;;;5090072;28;20048;-86
2021/08/04 03:18:15;;;;;;;8.73;2.70;;;13.50;76.90;;;;;;5089872;28;20040;-86
2021/08/04 03:20:42;;;;;;;5.35;2.47;;;13.60;76.90;;;;;;5091228;28;20113;-85
2021/08/04 03:23:09;;;;;;;7.93;2.72;;;13.50;76.80;;;;;;5091362;28;20685;-86
2021/08/04 03:25:36;;;;;;;13.35;2.78;;;13.50;76.90;;;;;;5090949;28;20052;-86
2021/08/04 03:28:03;;;;;;;9.68;3.05;;;13.50;77.00;;;;;;5093976;28;20459;-86
2021/08/04 03:30:30;;;;;;;10.00;3.00;;;13.50;77.00;;;;;;5092876;28;20044;-86
2021/08/04 03:32:57;;;;;;;12.05;2.78;;;13.50;77.00;;;;;;5093868;28;20078;-87
2021/08/04 03:35:24;;;;;;;7.63;3.00;;;13.50;76.90;;;;;;5096041;28;20055;-86
2021/08/04 03:37:51;;;;;;;8.10;3.20;;;13.40;76.90;;;;;;5093796;28;20097;-86
2021/08/04 03:40:18;;;;;;;8.32;2.70;;;13.40;76.80;;;;;;5094066;28;20055;-86
2021/08/04 03:42:45;;;;;;;11.07;2.95;;;13.40;76.80;;;;;;5093825;28;20066;-86
2021/08/04 03:45:12;;;;;;;10.30;2.80;;;13.40;76.70;;;;;;5093748;28;20044;-86
2021/08/04 03:47:39;;;;;;;9.00;2.95;;;13.40;76.80;;;;;;5094940;28;20040;-86
2021/08/04 03:50:08;;;;;;;9.48;2.80;;;13.30;76.80;;;;;;5092242;28;20055;-86
2021/08/04 03:52:35;;;;;;;13.23;2.53;;;13.30;76.90;;;;;;5093727;28;20101;-86
2021/08/04 03:55:02;;;;;;;6.93;3.00;;;13.30;76.90;;;;;;5093524;28;20093;-85
2021/08/04 03:57:29;;;;;;;6.95;3.28;;;13.30;76.90;;;;;;5093682;28;20044;-87
2021/08/04 03:59:56;;;;;;;8.27;2.80;;;13.30;76.90;;;;;;5093471;28;20045;-86
2021/08/04 04:02:23;;;;;;;7.30;2.55;;;13.30;76.90;;;;;;5095195;28;20074;-86
2021/08/04 04:04:50;;;;;;;7.30;2.47;;;13.30;77.00;;;;;;5093426;28;20406;-86
2021/08/04 04:07:17;;;;;;;6.65;3.08;;;13.30;77.00;;;;;;5093209;28;20433;-86
2021/08/04 04:09:44;;;;;;;6.40;2.90;;;13.20;77.10;;;;;;5092136;28;20048;-86
2021/08/04 04:12:11;;;;;;;9.18;2.72;;;13.20;77.30;;;;;;5091947;28;20044;-86
2021/08/04 04:14:38;;;;;;;8.45;2.85;;;13.20;77.40;;;;;;5094515;28;20513;-85
2021/08/04 04:17:05;;;;;;;10.63;2.95;;;13.20;77.50;;;;;;5094651;28;20048;-87
2021/08/04 04:19:32;;;;;;;4.65;2.53;;;13.20;77.60;;;;;;5093118;28;20044;-86
2021/08/04 04:21:59;;;;;;;8.80;2.72;;;13.20;77.60;;;;;;5093104;28;20451;-86
2021/08/04 04:24:26;;;;;;;8.02;2.83;;;13.20;77.70;;;;;;5093053;28;20051;-86
2021/08/04 04:26:53;;;;;;;7.05;2.72;;;13.20;77.70;;;;;;5093056;28;20101;-86
2021/08/04 04:29:19;;;;;;;11.82;2.90;;;13.20;77.70;;;;;;5095112;28;20040;-86
2021/08/04 04:31:46;;;;;;;9.85;2.83;;;13.20;77.70;;;;;;5092430;28;20052;-86
2021/08/04 04:34:13;;;;;;;8.93;2.97;;;13.20;77.60;;;;;;5092932;28;20055;-86
2021/08/04 04:36:41;;;;;;;9.85;2.78;;;13.20;77.50;;;;;;5092140;28;20544;-85
2021/08/04 04:39:08;;;;;;;5.85;2.65;;;13.20;77.50;;;;;;5125633;27;20049;-86
2021/08/04 04:41:35;;;;;;;9.55;2.47;;;13.20;77.60;;;;;;5094700;28;20501;-86
2021/08/04 04:44:02;;;;;;;10.27;2.70;;;13.20;77.50;;;;;;5093198;28;20456;-86
2021/08/04 04:46:29;;;;;;;5.63;2.90;;;13.10;77.60;;;;;;5092146;28;20101;-86
2021/08/04 04:48:57;;;;;;;9.90;2.92;;;13.10;77.70;;;;;;5091292;28;20410;-88
2021/08/04 04:51:23;;;;;;;10.63;2.78;;;13.10;77.80;;;;;;5091237;28;20044;-88
2021/08/04 04:53:50;;;;;;;13.52;3.38;;;13.10;77.80;;;;;;5092476;28;20051;-89
2021/08/04 04:56:18;;;;;;;13.02;2.75;;;13.10;77.80;;;;;;5094612;28;20044;-87
2021/08/04 04:58:45;;;;;;;10.00;3.08;;;13.10;77.80;;;;;;5092437;28;20059;-88
2021/08/04 05:01:12;;;;;;;14.63;3.13;;;13.10;77.80;;;;;;5092442;28;20043;-87
2021/08/04 05:03:39;;;;;;;6.97;2.55;;;13.10;77.70;;;;;;5092335;28;20040;-87
2021/08/04 05:06:06;;;;;;;10.57;3.10;;;13.10;77.80;;;;;;5092412;28;20040;-87
2021/08/04 05:08:33;;;;;;;9.68;2.50;;;13.10;77.90;;;;;;5093128;28;20101;-88
2021/08/04 05:11:00;;;;;;;6.53;2.33;;;13.10;77.90;;;;;;5089740;28;20451;-87
2021/08/04 05:13:26;;;;;;;10.80;2.85;;;13.00;77.90;;;;;;5090147;28;20040;-86
2021/08/04 05:15:53;;;;;;;10.52;2.83;;;13.00;78.00;;;;;;5090528;28;20044;-86
2021/08/04 05:18:21;;;;;;;13.50;2.78;;;13.10;78.00;;;;;;5092144;28;20040;-87
2021/08/04 05:20:48;;;;;;;11.13;2.83;;;13.10;78.20;;;;;;5092250;28;20113;-87
2021/08/04 05:23:15;;;;;;;12.23;3.25;;;13.10;78.30;;;;;;5091880;28;20048;-87
2021/08/04 05:25:42;;;;;;;9.90;3.25;;;13.10;78.30;;;;;;5090236;28;20052;-86
2021/08/04 05:28:09;;;;;;;13.32;3.28;;;13.10;78.40;;;;;;5091325;28;20040;-87
2021/08/04 05:30:36;;;;;;;12.73;3.42;;;13.10;78.60;;;;;;5092779;28;20460;-87
2021/08/04 05:33:03;;;;;;;15.55;3.30;;;13.10;78.70;;;;;;5073254;28;20111;-87
2021/08/04 05:35:29;;;;;;;12.35;3.40;;;13.10;78.80;;;;;;5093720;28;20131;-87
2021/08/04 05:37:56;;;;;;;9.45;3.30;;;13.10;78.90;;;;;;5089462;28;20056;-88
2021/08/04 05:40:23;;;;;;;10.13;3.10;;;13.10;79.00;;;;;;5091550;28;20068;-86
2021/08/04 05:42:50;;;;;;;12.82;3.42;;;13.10;79.00;;;;;;5089926;28;20113;-87
2021/08/04 05:45:17;;;;;;;6.15;2.88;;;13.10;79.10;;;;;;5091448;28;20093;-87
2021/08/04 05:47:44;;;;;;;9.70;3.80;;;13.20;79.20;;;;;;5090496;28;20521;-87
2021/08/04 05:50:11;;;;;;;17.63;3.83;;;13.20;79.40;;;;;;5091778;28;20048;-86
2021/08/04 05:52:38;;;;;;;9.27;3.60;;;13.20;79.50;;;;;;5091379;28;20063;-87
2021/08/04 05:55:08;;;;;;;6.97;3.00;;;13.20;79.60;;;;;;5117663;27;20040;-86
2021/08/04 05:57:35;;;;;;;12.00;3.13;;;13.20;79.70;;;;;;5077728;28;20395;-87
2021/08/04 06:00:03;;;;;;;14.85;3.78;;;13.20;79.80;;;;;;5090425;28;20109;-88
2021/08/04 06:02:30;;;;;;;11.02;3.90;;;13.30;79.80;;;;;;5093279;28;20067;-86
2021/08/04 06:04:57;;;;;;;12.73;3.33;;;13.30;80.00;;;;;;5091125;28;20516;-86
2021/08/04 06:07:24;;;;;;;7.22;3.40;;;13.30;80.10;;;;;;5089660;28;20051;-87
2021/08/04 06:09:51;;;;;;;11.57;3.58;;;13.40;80.20;;;;;;5089596;28;20048;-86
2021/08/04 06:12:21;;;;;;;7.65;3.10;;;13.40;80.30;;;;;;5090631;28;20510;-86
2021/08/04 06:14:48;;;;;;;6.55;3.63;;;13.40;80.40;;;;;;5091110;28;20467;-88
2021/08/04 06:17:15;;;;;;;11.85;4.30;;;13.40;80.50;;;;;;5090945;28;20052;-88
2021/08/04 06:19:42;;;;;;;14.27;3.63;;;13.40;80.60;;;;;;5090733;28;20048;-88
2021/08/04 06:22:09;;;;;;;15.43;4.70;;;13.50;80.60;;;;;;5088626;28;20497;-88
2021/08/04 06:24:36;;;;;;;9.95;3.28;;;13.50;80.60;;;;;;5090900;28;20402;-87
2021/08/04 06:27:03;;;;;;;6.95;2.95;;;13.60;80.70;;;;;;5072218;28;20502;-87
2021/08/04 06:29:30;;;;;;;14.85;6.68;;;13.60;80.80;;;;;;5092930;28;20056;-88
2021/08/04 06:31:57;;;;;;;13.73;6.57;;;13.60;80.80;;;;;;5090570;28;20052;-87
2021/08/04 06:34:24;;;;;;;14.13;7.43;;;13.70;81.00;;;;;;5090533;28;20044;-87
2021/08/04 06:36:51;;;;;;;12.63;8.07;;;13.80;81.20;;;;;;5090392;28;20058;-86
2021/08/04 06:39:18;;;;;;;14.23;9.90;;;13.90;81.50;;;;;;5092087;28;20036;-90
2021/08/04 06:42:00;;;;;;;7.78;4.32;;;13.90;81.60;;;;;;5090169;28;20043;-88
2021/08/04 06:44:28;;;;;;;15.35;10.55;;;13.90;81.50;;;;;;5092124;28;20048;-86
2021/08/04 06:46:59;;;;;;;14.98;9.75;;;14.00;81.30;;;;;;5089116;28;20098;-87
2021/08/04 06:49:26;;;;;;;27.60;14.55;;;14.10;81.50;;;;;;5084525;28;20416;-85
2021/08/04 06:51:53;;;;;;;30.23;16.70;;;14.30;81.90;;;;;;5090458;28;20448;-86
2021/08/04 06:54:20;;;;;;;29.08;17.55;;;14.40;82.10;;;;;;5090472;28;20044;-85
2021/08/04 06:56:46;;;;;;;24.70;17.38;;;14.40;82.20;;;;;;5090515;28;20067;-84
2021/08/04 06:59:13;;;;;;;32.65;21.50;;;14.60;82.30;;;;;;5091858;28;20456;-85
2021/08/04 07:01:40;;;;;;;28.08;17.40;;;14.70;82.40;;;;;;5090138;28;20552;-85
2021/08/04 07:04:07;;;;;;;20.98;14.68;;;14.80;82.50;;;;;;5089149;28;20045;-86
2021/08/04 07:06:34;;;;;;;26.83;20.20;;;14.90;82.30;;;;;;5090377;28;20093;-88
2021/08/04 07:09:01;;;;;;;24.13;17.08;;;14.90;82.10;;;;;;5088346;28;20040;-86
2021/08/04 07:11:28;;;;;;;31.58;21.63;;;15.10;82.10;;;;;;5076268;28;20048;-87
2021/08/04 07:14:00;;;;;;;33.45;19.92;;;15.10;82.30;;;;;;5084048;28;20097;-86
2021/08/04 07:16:27;;;;;;;25.38;16.50;;;15.30;82.40;;;;;;5076771;28;20124;-87
2021/08/04 07:18:54;;;;;;;34.28;19.52;;;15.40;82.80;;;;;;5082821;28;20048;-87
2021/08/04 07:21:21;;;;;;;17.17;12.60;;;15.50;82.70;;;;;;5086736;28;20040;-86
2021/08/04 07:23:48;;;;;;;19.98;14.45;;;15.50;82.50;;;;;;5069743;28;20045;-84
2021/08/04 07:26:14;;;;;;;25.98;18.85;;;15.60;82.30;;;;;;5078208;28;20494;-84
2021/08/04 07:28:43;;;;;;;23.33;17.85;;;15.80;82.10;;;;;;5082098;28;20702;-85
2021/08/04 07:31:10;;;;;;;24.17;17.50;;;15.90;82.20;;;;;;5087956;28;20483;-84
2021/08/04 07:33:37;;;;;;;20.98;14.50;;;15.90;82.10;;;;;;5090524;28;20044;-85
2021/08/04 07:36:05;;;;;;;26.13;17.90;;;16.00;82.00;;;;;;5073591;28;20047;-85
2021/08/04 07:38:32;;;;;;;27.95;17.42;;;16.10;81.80;;;;;;5071582;28;20044;-85
2021/08/04 07:41:00;;;;;;;23.98;16.00;;;16.20;81.70;;;;;;5083329;28;20499;-86
2021/08/04 07:43:27;;;;;;;20.38;14.13;;;16.30;81.60;;;;;;5071812;28;20060;-85
2021/08/04 07:45:54;;;;;;;19.30;14.68;;;16.40;81.50;;;;;;5071351;28;20045;-86
2021/08/04 07:48:21;;;;;;;21.92;16.00;;;16.50;81.30;;;;;;5104174;28;20052;-86
2021/08/04 07:50:49;;;;;;;20.02;14.30;;;16.60;81.10;;;;;;5070013;28;20425;-85
2021/08/04 07:53:15;;;;;;;16.88;10.00;;;16.70;80.90;;;;;;5071737;28;20049;-86
2021/08/04 07:55:42;;;;;;;21.23;15.88;;;16.80;80.50;;;;;;5103775;28;20498;-87
2021/08/04 07:58:09;;;;;;;24.92;13.80;;;16.90;80.30;;;;;;5070976;28;20104;-87
2021/08/04 08:00:36;;;;;;;19.58;15.02;;;17.00;80.20;;;;;;5104395;28;20164;-86
2021/08/04 08:03:04;;;;;;;20.70;14.20;;;17.10;80.00;;;;;;5103854;28;20427;-86
2021/08/04 08:05:31;;;;;;;20.13;15.60;;;17.20;79.80;;;;;;5090556;28;20060;-87
2021/08/04 08:08:04;;;;;;;17.35;13.02;;;17.20;79.30;;;;;;5071264;28;20056;-86
2021/08/04 08:10:32;;;;;;;16.45;13.00;;;17.30;79.10;;;;;;5070727;28;20056;-86
2021/08/04 08:12:59;;;;;;;17.58;11.50;;;17.40;78.90;;;;;;5084565;28;20533;-86
2021/08/04 08:15:27;;;;;;;17.70;14.10;;;17.40;78.80;;;;;;5092936;28;20078;-86
2021/08/04 08:17:54;;;;;;;17.45;11.90;;;17.40;78.80;;;;;;5125349;27;20113;-86
2021/08/04 08:20:21;;;;;;;16.67;11.82;;;17.60;78.70;;;;;;5088933;28;20048;-86
2021/08/04 08:22:50;;;;;;;13.88;9.57;;;17.70;78.40;;;;;;5093694;28;20433;-86
2021/08/04 08:25:17;;;;;;;14.13;10.35;;;17.80;78.00;;;;;;5093236;28;20056;-88
2021/08/04 08:27:46;;;;;;;13.43;10.38;;;17.90;77.60;;;;;;5090746;28;20049;-87
2021/08/04 08:30:13;;;;;;;14.77;10.45;;;18.00;77.30;;;;;;5079511;28;20117;-87
2021/08/04 08:32:40;;;;;;;11.63;9.45;;;18.10;77.00;;;;;;5093356;28;20110;-87
2021/08/04 08:35:09;;;;;;;13.57;9.40;;;18.20;76.80;;;;;;5128334;27;20047;-89
2021/08/04 08:37:36;;;;;;;16.33;8.10;;;18.40;76.60;;;;;;5094640;28;20051;-91
2021/08/04 08:40:03;;;;;;;11.77;7.53;;;18.40;76.50;;;;;;5127272;27;20047;-89
2021/08/04 08:42:34;;;;;;;11.98;7.13;;;18.60;76.10;;;;;;5090280;28;20057;-90
2021/08/04 08:45:05;;;;;;;10.27;6.80;;;18.80;75.60;;;;;;5073233;28;20048;-89
2021/08/04 08:47:33;;;;;;;9.55;5.90;;;18.90;75.10;;;;;;5073615;28;20380;-89
2021/08/04 08:50:02;;;;;;;9.93;5.97;;;18.90;74.50;;;;;;5087226;28;20044;-89
2021/08/04 08:52:32;;;;;;;8.68;6.18;;;19.10;74.00;;;;;;5089130;28;20048;-88
2021/08/04 08:55:03;;;;;;;9.32;5.88;;;19.20;74.00;;;;;;5086932;28;20052;-88
2021/08/04 08:57:30;;;;;;;7.90;5.00;;;19.30;73.70;;;;;;5078087;28;20047;-89
2021/08/04 08:59:58;;;;;;;11.43;5.15;;;19.40;72.90;;;;;;5073967;28;20442;-89
2021/08/04 09:02:26;;;;;;;11.07;5.80;;;19.50;72.30;;;;;;5089544;28;20048;-89
2021/08/04 09:05:07;;;;;;;7.78;4.55;;;19.70;71.90;;;;;;5092482;28;20060;-89
2021/08/04 09:07:43;;;;;;;10.52;5.22;;;19.80;71.70;;;;;;5085667;28;20464;-88
2021/08/04 09:10:33;;;;;;;7.40;5.32;;;19.90;71.50;;;;;;5080657;28;20044;-89
2021/08/04 09:13:05;;;;;;;8.80;5.35;;;20.10;71.30;;;;;;5085185;28;20059;-89
2021/08/04 09:15:36;;;;;;;7.75;4.85;;;20.30;71.00;;;;;;5092603;28;20500;-89
2021/08/04 09:18:16;;;;;;;8.13;4.68;;;20.40;70.80;;;;;;5090409;28;20123;-89
2021/08/04 09:20:45;;;;;;;6.90;3.92;;;20.60;70.20;;;;;;5089797;28;20387;-89
2021/08/04 09:23:16;;;;;;;7.57;3.50;;;20.70;69.60;;;;;;5079512;28;20513;-90
2021/08/04 09:26:05;;;;;;;7.50;3.65;;;20.90;69.10;;;;;;5081189;28;20056;-89
2021/08/04 09:29:09;;;;;;;8.18;3.67;;;20.90;68.20;;;;;;5087148;28;20044;-89
2021/08/04 09:31:51;;;;;;;8.77;3.33;;;21.10;67.90;;;;;;5080524;28;20063;-89
2021/08/04 09:34:40;;;;;;;9.55;3.30;;;21.20;67.40;;;;;;5076069;28;20059;-89
2021/08/04 09:37:20;;;;;;;8.77;3.42;;;21.40;67.30;;;;;;5084054;28;20052;-88
2021/08/04 09:39:58;;;;;;;6.57;3.03;;;21.40;67.40;;;;;;5085951;28;20067;-89
2021/08/04 09:42:52;;;;;;;5.57;3.30;;;21.60;66.70;;;;;;5078632;28;20051;-88
2021/08/04 09:45:36;;;;;;;6.35;3.00;;;21.80;66.30;;;;;;5074518;28;20094;-88
2021/08/04 09:48:09;;;;;;;7.28;3.30;;;21.80;65.90;;;;;;5073705;28;20457;-87
2021/08/04 09:50:50;;;;;;;4.77;2.80;;;21.90;65.50;;;;;;5089058;28;20052;-87
2021/08/04 09:53:19;;;;;;;5.50;2.60;;;22.00;64.60;;;;;;5077711;28;20290;-88
2021/08/04 09:56:06;;;;;;;5.25;2.92;;;22.00;64.10;;;;;;5077424;28;20041;-87
2021/08/04 09:58:41;;;;;;;4.97;2.97;;;22.10;63.80;;;;;;5082971;28;20457;-87
2021/08/04 10:01:11;;;;;;;4.13;2.40;;;22.10;63.60;;;;;;5091368;28;20052;-88
2021/08/04 10:03:40;;;;;;;8.57;2.95;;;22.10;63.50;;;;;;5090955;28;20051;-88
2021/08/04 10:06:19;;;;;;;4.88;3.08;;;22.10;63.40;;;;;;5091477;28;20064;-88
2021/08/04 10:08:54;;;;;;;4.90;2.80;;;22.00;63.30;;;;;;5074847;28;20196;-89
2021/08/04 10:11:22;;;;;;;5.85;2.80;;;22.00;63.70;;;;;;5091834;28;20044;-88
2021/08/04 10:13:50;;;;;;;5.07;2.70;;;22.00;64.10;;;;;;5087180;28;20060;-89
2021/08/04 10:16:17;;;;;;;6.60;2.50;;;22.00;64.50;;;;;;5074422;28;20074;-87
2021/08/04 10:18:44;;;;;;;4.78;2.42;;;22.10;64.50;;;;;;5077057;28;20056;-87
2021/08/04 10:21:15;;;;;;;6.60;2.35;;;22.10;63.60;;;;;;5076499;28;20459;-87
2021/08/04 10:23:50;;;;;;;5.55;2.33;;;22.20;63.00;;;;;;5089455;28;20055;-88
2021/08/04 10:26:18;;;;;;;4.68;2.40;;;22.30;62.50;;;;;;5077039;28;20052;-86
2021/08/04 10:28:46;;;;;;;5.95;2.63;;;22.30;61.80;;;;;;5078051;28;20516;-88
2021/08/04 10:31:14;;;;;;;4.10;2.05;;;22.30;61.40;;;;;;5078824;28;20466;-88
2021/08/04 10:33:42;;;;;;;4.45;2.13;;;22.30;61.40;;;;;;5087026;28;20098;-86
2021/08/04 10:36:15;;;;;;;4.50;2.10;;;22.30;61.20;;;;;;5088565;28;20497;-88
2021/08/04 10:38:56;;;;;;;5.67;1.90;;;22.30;61.20;;;;;;5092457;28;20460;-87
2021/08/04 10:41:25;;;;;;;7.35;2.35;;;22.40;61.60;;;;;;5072792;28;20287;-86
2021/08/04 10:44:02;;;;;;;4.63;2.30;;;22.40;61.60;;;;;;5084068;28;20460;-86
2021/08/04 10:46:29;;;;;;;4.38;2.53;;;22.40;61.40;;;;;;5083245;28;20449;-87
2021/08/04 10:49:07;;;;;;;3.70;2.10;;;22.40;60.90;;;;;;5086177;28;20044;-87
2021/08/04 10:51:43;;;;;;;3.92;2.00;;;22.40;60.60;;;;;;5078471;28;20044;-87
2021/08/04 10:54:19;;;;;;;5.85;2.15;;;22.40;60.60;;;;;;5092105;28;20044;-87
2021/08/04 10:56:48;;;;;;;4.97;2.42;;;22.40;60.90;;;;;;5091148;28;20060;-88
2021/08/04 10:59:34;;;;;;;4.18;2.25;;;22.40;61.30;;;;;;5079483;28;20041;-94
2021/08/04 11:02:01;;;;;;;3.63;2.10;;;22.40;61.50;;;;;;5083957;28;20134;-87
2021/08/04 11:04:28;;;;;;;6.07;2.17;;;22.40;61.20;;;;;;5081213;28;20123;-89
2021/08/04 11:07:19;;;;;;;4.32;2.10;;;22.40;60.70;;;;;;5076579;28;20459;-87
2021/08/04 11:09:46;;;;;;;5.63;2.40;;;22.40;60.20;;;;;;5078627;28;20048;-89
2021/08/04 11:12:43;;;;;;;4.60;2.20;;;22.30;60.00;;;;;;5073570;28;20048;-89
2021/08/04 11:15:29;;;;;;;5.72;2.28;;;22.30;60.10;;;;;;5071118;28;20041;-87
2021/08/04 11:18:09;;;;;;;7.15;2.47;;;22.30;60.60;;;;;;5071287;28;20097;-88
2021/08/04 11:21:03;;;;;;;3.80;2.17;;;22.30;60.80;;;;;;5087834;28;20048;-87
2021/08/04 11:23:45;;;;;;;5.68;2.75;;;22.20;60.90;;;;;;5087472;28;20055;-87
2021/08/04 11:27:02;;;;;;;3.53;2.25;;;22.20;61.10;;;;;;5107805;28;20052;-88
2021/08/04 11:29:46;;;;;;;5.00;2.45;;;22.20;61.10;;;;;;5013349;28;20061;-88
2021/08/04 11:32:17;;;;;;;;;;;22.30;61.10;;;;;;5030675;28;20064;-88
2021/08/04 11:34:44;;;;;;;5.40;2.40;;;22.20;61.20;;;;;;5027726;28;19999;-87
2021/08/04 11:37:11;;;;;;;4.65;2.28;;;22.20;61.20;;;;;;5028362;28;20045;-87
2021/08/04 11:39:57;;;;;;;4.25;2.38;;;22.20;61.20;;;;;;5012229;28;20045;-87
2021/08/04 11:42:25;;;;;;;3.85;2.13;;;22.30;61.20;;;;;;5030366;28;20507;-87
2021/08/04 11:44:52;;;;;;;5.32;2.75;;;22.30;61.00;;;;;;5029347;28;20049;-87
2021/08/04 11:47:23;;;;;;;4.55;2.38;;;22.30;60.80;;;;;;5032734;28;20060;-86
2021/08/04 11:49:52;;;;;;;6.18;2.53;;;22.20;60.90;;;;;;5031649;28;20463;-88
2021/08/04 11:52:25;;;;;;;4.72;2.72;;;22.30;61.20;;;;;;5015440;28;20108;-86
2021/08/04 11:55:07;;;;;;;5.13;2.50;;;22.30;61.20;;;;;;5031596;28;20562;-88
2021/08/04 11:57:46;;;;;;;5.85;2.45;;;22.40;60.90;;;;;;5031234;28;20049;-88
2021/08/04 12:00:24;;;;;;;7.38;2.40;;;22.40;60.60;;;;;;5047957;28;20037;-85
2021/08/04 12:02:51;;;;;;;4.00;2.50;;;22.40;60.20;;;;;;5031353;28;20050;-87
2021/08/04 12:05:20;;;;;;;4.65;2.60;;;22.40;60.00;;;;;;5075594;28;20109;-87
2021/08/04 12:07:47;;;;;;;5.93;2.45;;;22.40;60.00;;;;;;5081384;28;20056;-87
2021/08/04 12:10:16;;;;;;;4.50;2.58;;;22.40;60.20;;;;;;5076198;28;20045;-86
2021/08/04 12:12:48;;;;;;;4.47;2.47;;;22.50;60.20;;;;;;5078996;28;20061;-87
2021/08/04 12:15:28;;;;;;;4.32;2.40;;;22.40;59.90;;;;;;5084652;28;20040;-86
2021/08/04 12:18:03;;;;;;;4.65;2.38;;;22.50;59.70;;;;;;5090988;28;20100;-86
2021/08/04 12:20:33;;;;;;;7.78;2.55;;;22.50;59.60;;;;;;5088944;28;20409;-87
2021/08/04 12:23:02;;;;;;;4.68;2.22;;;22.40;59.40;;;;;;5079096;28;20619;-87
2021/08/04 12:25:31;;;;;;;4.68;2.53;;;22.50;59.10;;;;;;5083426;28;20043;-87
2021/08/04 12:27:59;;;;;;;6.60;2.40;;;22.40;59.20;;;;;;5091506;28;20468;-88
2021/08/04 12:30:31;;;;;;;4.25;2.47;;;22.50;59.50;;;;;;5088054;28;20040;-87
2021/08/04 12:35:47;;;;;;;;;;;22.50;60.30;;;;;;5089077;28;20497;-87
2021/08/04 12:38:25;;;;;;;5.72;2.20;;;22.50;60.50;;;;;;5078914;28;19995;-87
2021/08/04 12:40:54;;;;;;;5.85;2.40;;;22.50;60.80;;;;;;5086070;28;20089;-87
2021/08/04 12:43:23;;;;;;;4.97;2.45;;;22.50;61.20;;;;;;5084033;28;20094;-86
2021/08/04 12:45:52;;;;;;;4.60;2.20;;;22.50;61.40;;;;;;5079006;28;20102;-87
2021/08/04 12:48:22;;;;;;;4.20;2.70;;;22.40;61.20;;;;;;5091147;28;20048;-88
2021/08/04 12:50:56;;;;;;;4.13;2.42;;;22.50;61.10;;;;;;5091745;28;20044;-87
2021/08/04 12:53:33;;;;;;;6.95;2.40;;;22.50;61.10;;;;;;5091706;28;20058;-87
2021/08/04 12:56:15;;;;;;;6.55;2.20;;;22.50;61.30;;;;;;5089733;28;20097;-85
2021/08/04 12:58:54;;;;;;;4.20;2.60;;;22.50;61.40;;;;;;5080903;28;20048;-85
2021/08/04 13:01:24;;;;;;;7.07;2.42;;;22.60;60.90;;;;;;5083855;28;20048;-87